Time;durP1;ratioP1;P1;durP2;ratioP2;P2;SDS_P1;SDS_P2;PMS_P1;PMS_P2;Temp;Humidity;BMP_temperature;BMP_pressure;BME280_temperature;BME280_humidity;BME280_pressure;Samples;Min_cycle;Max_cycle;Signal;HPM_P1;HPM_P2
2022/05/31 00:01:28;;;;;;;;;;;10.30;99.90;;;;;;5082038;28;19920;-66
2022/05/31 00:03:53;;;;;;;;;;;10.40;99.90;;;;;;5083173;28;19916;-65
2022/05/31 00:06:19;;;;;;;;;;;10.30;99.90;;;;;;5083081;28;19955;-66
2022/05/31 00:08:45;;;;;;;;;;;10.40;99.90;;;;;;5065404;28;19912;-65
2022/05/31 00:11:10;;;;;;;;;;;10.40;99.90;;;;;;5079359;28;20358;-66
2022/05/31 00:13:36;;;;;;;;;;;10.40;99.90;;;;;;5078638;28;19912;-65
2022/05/31 00:16:01;;;;;;;;;;;10.50;99.90;;;;;;5077962;28;19960;-65
2022/05/31 00:18:27;;;;;;;;;;;10.60;99.90;;;;;;5080534;28;19963;-66
2022/05/31 00:20:53;;;;;;;;;;;10.70;99.90;;;;;;5078231;28;19938;-65
2022/05/31 00:23:20;;;;;;;;;;;10.90;99.90;;;;;;5080506;28;19912;-64
2022/05/31 00:25:45;;;;;;;;;;;11.10;99.90;;;;;;5078339;28;19927;-65
2022/05/31 00:28:11;;;;;;;;;;;11.10;99.90;;;;;;5079204;28;19915;-66
2022/05/31 00:30:37;;;;;;;;;;;11.00;99.90;;;;;;5082280;28;19912;-66
2022/05/31 00:33:03;;;;;;;;;;;10.90;99.90;;;;;;5081037;28;20195;-67
2022/05/31 00:35:30;;;;;;;;;;;10.80;99.90;;;;;;5067748;28;20199;-65
2022/05/31 00:37:56;;;;;;;;;;;10.80;99.90;;;;;;5082866;28;19951;-65
2022/05/31 00:40:23;;;;;;;;;;;10.70;99.90;;;;;;5084234;28;19916;-66
2022/05/31 00:42:54;;;;;;;;;;;10.70;99.90;;;;;;5067147;28;20000;-65
2022/05/31 00:45:22;;;;;;;;;;;10.70;99.90;;;;;;5086201;28;19916;-67
2022/05/31 00:47:48;;;;;;;;;;;10.60;99.90;;;;;;5081447;28;19961;-66
2022/05/31 00:50:16;;;;;;;;;;;10.70;99.90;;;;;;5084648;28;19916;-65
2022/05/31 00:52:45;;;;;;;;;;;10.70;99.90;;;;;;5084028;28;19935;-67
2022/05/31 00:55:16;;;;;;;;;;;10.70;99.90;;;;;;5082871;28;19913;-66
2022/05/31 00:57:47;;;;;;;;;;;10.80;99.90;;;;;;5084240;28;20011;-65
2022/05/31 01:00:14;;;;;;;;;;;10.90;99.90;;;;;;5078311;28;19974;-66
2022/05/31 01:02:40;;;;;;;;;;;10.90;99.90;;;;;;5083729;28;19976;-66
2022/05/31 01:05:07;;;;;;;;;;;11.00;99.90;;;;;;5082567;28;19916;-66
2022/05/31 01:07:32;;;;;;;;;;;11.10;99.90;;;;;;5082115;28;19919;-66
2022/05/31 01:09:58;;;;;;;;;;;11.10;99.90;;;;;;5083161;28;19987;-66
2022/05/31 01:12:25;;;;;;;;;;;11.20;99.90;;;;;;5084743;28;20242;-67
2022/05/31 01:14:51;;;;;;;;;;;11.20;99.90;;;;;;5082068;28;19912;-66
2022/05/31 01:17:19;;;;;;;;;;;11.20;99.90;;;;;;5063455;28;19912;-66
2022/05/31 01:19:59;;;;;;;;;;;11.20;99.90;;;;;;5081954;28;20462;-66
2022/05/31 01:22:36;;;;;;;;;;;11.30;99.90;;;;;;5079832;28;20262;-65
2022/05/31 01:25:17;;;;;;;;;;;11.20;99.90;;;;;;5081911;28;19916;-65
2022/05/31 01:28:02;;;;;;;;;;;11.20;99.90;;;;;;5081858;28;19969;-65
2022/05/31 01:30:29;;;;;;;;;;;11.10;99.90;;;;;;5081036;28;19919;-65
2022/05/31 01:33:03;;;;;;;;;;;11.10;99.90;;;;;;5080822;28;20504;-65
2022/05/31 01:35:30;;;;;;;;;;;11.00;99.90;;;;;;5065431;28;19948;-65
2022/05/31 01:37:59;;;;;;;;;;;10.90;99.90;;;;;;5064334;28;19963;-64
2022/05/31 01:40:40;;;;;;;;;;;10.90;99.90;;;;;;5080130;28;20320;-65
2022/05/31 01:43:06;;;;;;;;;;;11.00;99.90;;;;;;5081703;28;20392;-66
2022/05/31 01:45:39;;;;;;;;;;;11.10;99.90;;;;;;5077507;28;19921;-65
2022/05/31 01:48:06;;;;;;;;;;;11.30;99.90;;;;;;5075497;28;19950;-66
2022/05/31 01:50:31;;;;;;;;;;;11.30;99.90;;;;;;5083620;28;19919;-65
2022/05/31 01:52:57;;;;;;;;;;;11.40;99.90;;;;;;5077201;28;19912;-66
2022/05/31 01:55:24;;;;;;;;;;;11.40;99.90;;;;;;5041734;28;19920;-64
2022/05/31 01:57:52;;;;;;;;;;;11.50;99.90;;;;;;5078410;28;19927;-65
2022/05/31 02:00:18;;;;;;;;;;;11.50;99.90;;;;;;5058000;28;20386;-65
2022/05/31 02:02:48;;;;;;;;;;;11.10;99.90;;;;;;5082195;28;20332;-66
2022/05/31 02:05:15;;;;;;;;;;;11.00;99.90;;;;;;5065430;28;19924;-65
2022/05/31 02:07:40;;;;;;;;;;;11.00;99.90;;;;;;5063710;28;19916;-65
2022/05/31 02:10:06;;;;;;;;;;;11.10;99.90;;;;;;5081038;28;20336;-66
2022/05/31 02:12:32;;;;;;;;;;;11.10;99.90;;;;;;5084127;28;19981;-65
2022/05/31 02:14:57;;;;;;;;;;;11.20;99.90;;;;;;5081784;28;19916;-65
2022/05/31 02:17:23;;;;;;;;;;;11.30;99.90;;;;;;5082287;28;19916;-65
2022/05/31 02:19:49;;;;;;;;;;;11.40;99.90;;;;;;5081956;28;19928;-65
2022/05/31 02:22:16;;;;;;;;;;;11.40;99.90;;;;;;5081463;28;19954;-66
2022/05/31 02:24:42;;;;;;;;;;;11.40;99.90;;;;;;5081724;28;19916;-65
2022/05/31 02:27:08;;;;;;;;;;;11.40;99.90;;;;;;5075452;28;20285;-65
2022/05/31 02:29:35;;;;;;;;;;;11.40;99.90;;;;;;5075480;28;19912;-65
2022/05/31 02:32:01;;;;;;;;;;;11.30;99.90;;;;;;5077327;28;19956;-65
2022/05/31 02:34:29;;;;;;;;;;;11.10;99.90;;;;;;5078468;28;19959;-64
2022/05/31 02:36:54;;;;;;;;;;;11.20;99.90;;;;;;5080369;28;19920;-65
2022/05/31 02:39:20;;;;;;;;;;;11.30;99.90;;;;;;5079327;28;19934;-66
2022/05/31 02:41:46;;;;;;;;;;;11.30;99.90;;;;;;5073794;28;20022;-65
2022/05/31 02:44:11;;;;;;;;;;;11.20;99.90;;;;;;5077166;28;20355;-66
2022/05/31 02:46:37;;;;;;;;;;;11.30;99.90;;;;;;5082558;28;19919;-66
2022/05/31 02:49:04;;;;;;;;;;;11.30;99.90;;;;;;5082582;28;19919;-66
2022/05/31 02:51:33;;;;;;;;;;;11.20;99.90;;;;;;5081747;28;20423;-65
2022/05/31 02:53:58;;;;;;;;;;;11.30;99.90;;;;;;5075113;28;19941;-66
2022/05/31 02:56:24;;;;;;;;;;;11.20;99.90;;;;;;5080596;28;19921;-65
2022/05/31 02:58:49;;;;;;;;;;;11.20;99.90;;;;;;5079628;28;20285;-66
2022/05/31 03:01:22;;;;;;;;;;;11.20;99.90;;;;;;5079958;28;20142;-66
2022/05/31 03:03:47;;;;;;;;;;;11.10;99.90;;;;;;5081956;28;20288;-65
2022/05/31 03:06:13;;;;;;;;;;;11.00;99.90;;;;;;5081168;28;19920;-66
2022/05/31 03:08:38;;;;;;;;;;;10.90;99.90;;;;;;5082366;28;19924;-66
2022/05/31 03:11:06;;;;;;;;;;;11.00;99.90;;;;;;5077950;28;20377;-66
2022/05/31 03:13:32;;;;;;;;;;;11.00;99.90;;;;;;5078502;28;19919;-66
2022/05/31 03:16:01;;;;;;;;;;;10.80;99.90;;;;;;5079813;28;20818;-66
2022/05/31 03:18:28;;;;;;;;;;;10.70;99.90;;;;;;5079453;28;19955;-65
2022/05/31 03:20:56;;;;;;;;;;;10.60;99.90;;;;;;5077196;28;19920;-67
2022/05/31 03:23:24;;;;;;;;;;;10.70;99.90;;;;;;5081832;28;20549;-66
2022/05/31 03:25:50;;;;;;;;;;;10.60;99.90;;;;;;5081373;28;19912;-65
2022/05/31 03:28:17;;;;;;;;;;;10.50;99.90;;;;;;5065088;28;20337;-66
2022/05/31 03:30:42;;;;;;;;;;;10.40;99.90;;;;;;5076360;28;20365;-66
2022/05/31 03:33:09;;;;;;;;;;;10.30;99.90;;;;;;5080496;28;19927;-65
2022/05/31 03:35:36;;;;;;;;;;;10.30;99.90;;;;;;5080512;28;19924;-66
2022/05/31 03:38:02;;;;;;;;;;;10.30;99.90;;;;;;5081470;28;19912;-65
2022/05/31 03:43:11;;;;;;;;;;;10.20;99.90;;;;;;5084029;28;19977;-65
2022/05/31 03:45:40;;;;;;;;;;;10.20;99.90;;;;;;5086600;28;20346;-66
2022/05/31 03:48:06;;;;;;;;;;;10.10;99.90;;;;;;5082024;28;21075;-65
2022/05/31 03:50:32;;;;;;;;;;;10.00;99.90;;;;;;5086346;28;20485;-66
2022/05/31 03:52:57;;;;;;;;;;;9.90;99.90;;;;;;5088374;28;19913;-65
2022/05/31 03:55:23;;;;;;;;;;;10.00;99.90;;;;;;5088295;28;19921;-65
2022/05/31 03:57:50;;;;;;;;;;;9.90;99.90;;;;;;5087121;28;19908;-65
2022/05/31 04:00:16;;;;;;;;;;;10.00;99.90;;;;;;5081556;28;19916;-65
2022/05/31 04:02:41;;;;;;;;;;;10.20;99.90;;;;;;5076899;28;20251;-65
2022/05/31 04:05:07;;;;;;;;;;;10.10;99.90;;;;;;5082907;28;19912;-66
2022/05/31 04:07:33;;;;;;;;;;;10.10;99.90;;;;;;5078085;28;19920;-65
2022/05/31 04:09:58;;;;;;;;;;;10.10;99.90;;;;;;5083590;28;19931;-65
2022/05/31 04:12:24;;;;;;;;;;;10.20;99.90;;;;;;5080487;28;19912;-65
2022/05/31 04:14:52;;;;;;;;;;;10.20;99.90;;;;;;5082956;28;19912;-65
2022/05/31 04:17:17;;;;;;;;;;;10.30;99.90;;;;;;5082537;28;20007;-65
2022/05/31 04:19:43;;;;;;;;;;;10.30;99.90;;;;;;5082879;28;20388;-67
2022/05/31 04:22:08;;;;;;;;;;;10.30;99.90;;;;;;5059590;28;19928;-67
2022/05/31 04:24:34;;;;;;;;;;;10.50;99.90;;;;;;5080123;28;19920;-65
2022/05/31 04:26:59;;;;;;;;;;;10.60;99.90;;;;;;5064235;28;20001;-65
2022/05/31 04:29:25;;;;;;;;;;;10.60;99.90;;;;;;5085231;28;19923;-64
2022/05/31 04:31:50;;;;;;;;;;;10.70;99.90;;;;;;5084890;28;19942;-67
2022/05/31 04:34:16;;;;;;;;;;;10.70;99.90;;;;;;5079828;28;19916;-68
2022/05/31 04:36:42;;;;;;;;;;;10.60;99.90;;;;;;5086025;28;19928;-64
2022/05/31 04:39:08;;;;;;;;;;;10.60;99.90;;;;;;5084747;28;20368;-65
2022/05/31 04:41:34;;;;;;;;;;;10.50;99.90;;;;;;5080506;28;20272;-66
2022/05/31 04:44:01;;;;;;;;;;;10.40;99.90;;;;;;5082688;28;19934;-65
2022/05/31 04:46:28;;;;;;;;;;;10.40;99.90;;;;;;5080451;28;20369;-66
2022/05/31 04:48:56;;;;;;;;;;;10.40;99.90;;;;;;5084247;28;19912;-65
2022/05/31 04:51:22;;;;;;;;;;;10.40;99.90;;;;;;5077801;28;20273;-66
2022/05/31 04:53:48;;;;;;;;;;;10.60;99.90;;;;;;5081971;28;19927;-66
2022/05/31 04:56:17;;;;;;;;;;;10.60;99.90;;;;;;5067179;28;20517;-67
2022/05/31 04:58:43;;;;;;;;;;;10.60;99.90;;;;;;5079505;28;19912;-65
2022/05/31 05:01:09;;;;;;;;;;;10.60;99.90;;;;;;5082819;28;19931;-65
2022/05/31 05:03:35;;;;;;;;;;;10.60;99.90;;;;;;5079745;28;20020;-66
2022/05/31 05:06:01;;;;;;;;;;;10.60;99.90;;;;;;5084235;28;19912;-65
2022/05/31 05:08:27;;;;;;;;;;;10.70;99.90;;;;;;5082913;28;19927;-66
2022/05/31 05:10:53;;;;;;;;;;;10.70;99.90;;;;;;5081811;28;19912;-69
2022/05/31 05:13:18;;;;;;;;;;;10.70;99.90;;;;;;5084352;28;19916;-65
2022/05/31 05:15:44;;;;;;;;;;;10.70;99.90;;;;;;5082005;28;20004;-65
2022/05/31 05:18:09;;;;;;;;;;;10.70;99.90;;;;;;5083252;28;19912;-65
2022/05/31 05:20:36;;;;;;;;;;;10.80;99.90;;;;;;5082094;28;19916;-65
2022/05/31 05:23:05;;;;;;;;;;;10.80;99.90;;;;;;5086064;28;19927;-66
2022/05/31 05:25:30;;;;;;;;;;;10.90;99.90;;;;;;5089217;28;19920;-67
2022/05/31 05:27:56;;;;;;;;;;;11.00;99.90;;;;;;5086895;28;20000;-65
2022/05/31 05:30:40;;;;;;;;;;;11.10;99.90;;;;;;5085355;28;19927;-66
2022/05/31 05:33:06;;;;;;;;;;;11.20;99.90;;;;;;5087064;28;19948;-66
2022/05/31 05:35:31;;;;;;;;;;;11.30;99.90;;;;;;5082785;28;19927;-66
2022/05/31 05:37:58;;;;;;;;;;;11.40;99.90;;;;;;5085993;28;19912;-66
2022/05/31 05:40:23;;;;;;;;;;;11.50;99.90;;;;;;5067515;28;19924;-66
2022/05/31 05:42:49;;;;;;;;;;;11.60;99.90;;;;;;5087835;28;19927;-66
2022/05/31 05:45:14;;;;;;;;;;;11.60;99.90;;;;;;5070664;28;19985;-66
2022/05/31 05:47:40;;;;;;;;;;;11.60;99.90;;;;;;5065237;28;19918;-65
2022/05/31 05:50:06;;;;;;;;;;;11.60;99.90;;;;;;5080954;28;19920;-66
2022/05/31 05:52:32;;;;;;;;;;;11.70;99.90;;;;;;5083971;28;19939;-65
2022/05/31 05:54:58;;;;;;;;;;;11.60;99.90;;;;;;5083052;28;19920;-66
2022/05/31 05:57:23;;;;;;;;;;;11.60;99.90;;;;;;5066707;28;19920;-65
2022/05/31 05:59:49;;;;;;;;;;;11.70;99.90;;;;;;5080781;28;19921;-68
2022/05/31 06:02:20;;;;;;;;;;;11.80;99.90;;;;;;5060514;28;19926;-66
2022/05/31 06:04:49;;;;;;;;;;;11.70;99.90;;;;;;5081029;28;19912;-66
2022/05/31 06:07:24;;;;;;;;;;;11.60;99.90;;;;;;5079440;28;20313;-66
2022/05/31 06:09:58;;;;;;;;;;;11.60;99.90;;;;;;5078568;28;19997;-67
2022/05/31 06:12:26;;;;;;;;;;;11.40;99.90;;;;;;5081301;28;19920;-68
2022/05/31 06:14:58;;;;;;;;;;;11.40;99.90;;;;;;5080014;28;19938;-67
2022/05/31 06:17:26;;;;;;;;;;;11.30;99.90;;;;;;5081914;28;19947;-67
2022/05/31 06:19:51;;;;;;;;;;;11.20;99.90;;;;;;5072934;28;19912;-67
2022/05/31 06:22:18;;;;;;;;;;;11.10;99.90;;;;;;5091990;28;19927;-66
2022/05/31 06:24:44;;;;;;;;;;;11.10;99.90;;;;;;5065377;28;20353;-67
2022/05/31 06:27:09;;;;;;;;;;;11.20;99.90;;;;;;5080312;28;22705;-67
2022/05/31 06:29:35;;;;;;;;;;;11.20;99.90;;;;;;5081605;28;20333;-67
2022/05/31 06:32:01;;;;;;;;;;;11.20;99.90;;;;;;5078325;28;19927;-66
2022/05/31 06:34:27;;;;;;;;;;;11.30;99.90;;;;;;5083008;28;19999;-67
2022/05/31 06:37:02;;;;;;;;;;;11.40;99.90;;;;;;5070533;28;19916;-67
2022/05/31 06:39:28;;;;;;;;;;;11.60;99.90;;;;;;5081361;28;19916;-67
2022/05/31 06:41:56;;;;;;;;;;;11.70;99.90;;;;;;5077944;28;19931;-66
2022/05/31 06:44:22;;;;;;;;;;;11.80;99.90;;;;;;5080758;28;19961;-67
2022/05/31 06:46:47;;;;;;;;;;;11.80;99.90;;;;;;5079139;28;19916;-67
2022/05/31 06:49:13;;;;;;;;;;;11.80;99.90;;;;;;5079857;28;19912;-67
2022/05/31 06:57:11;;;;;;;;;;;11.70;99.90;;;;;;5074662;28;19969;-66
2022/05/31 06:59:37;;;;;;;;;;;11.80;99.90;;;;;;5075201;28;19920;-67
2022/05/31 07:02:04;;;;;;;;;;;11.70;99.90;;;;;;5080038;28;21306;-66
2022/05/31 07:04:30;;;;;;;;;;;11.70;99.90;;;;;;5084906;28;19924;-65
2022/05/31 07:06:56;;;;;;;;;;;11.70;99.90;;;;;;5080157;28;19912;-66
2022/05/31 07:09:22;;;;;;;;;;;11.50;99.90;;;;;;5058366;28;20358;-67
2022/05/31 07:11:47;;;;;;;;;;;11.40;99.90;;;;;;5076342;28;20282;-66
2022/05/31 07:14:13;;;;;;;;;;;11.50;99.90;;;;;;5077796;28;19912;-66
2022/05/31 07:16:38;;;;;;;;;;;11.30;99.90;;;;;;5081048;28;19927;-67
2022/05/31 07:19:04;;;;;;;;;;;11.20;99.90;;;;;;5077624;28;19913;-68
2022/05/31 07:21:29;;;;;;;;;;;11.10;99.90;;;;;;5076966;28;19920;-67
2022/05/31 07:23:55;;;;;;;;;;;11.00;99.90;;;;;;5079251;28;19912;-67
2022/05/31 07:26:21;;;;;;;;;;;10.90;99.90;;;;;;5076609;28;19935;-66
2022/05/31 07:28:46;;;;;;;;;;;10.90;99.90;;;;;;5084706;28;20317;-68
2022/05/31 07:31:12;;;;;;;;;;;11.00;99.90;;;;;;5084137;28;19912;-67
2022/05/31 07:33:38;;;;;;;;;;;10.90;99.90;;;;;;5084930;28;19912;-69
2022/05/31 07:36:04;;;;;;;;;;;10.90;99.90;;;;;;5085869;28;19943;-68
2022/05/31 07:38:29;;;;;;;;;;;11.00;99.90;;;;;;5086835;28;20003;-66
2022/05/31 07:40:55;;;;;;;;;;;11.20;99.90;;;;;;5064091;28;19920;-68
2022/05/31 07:43:20;;;;;;;;;;;11.40;99.90;;;;;;5077181;28;19954;-65
2022/05/31 07:45:46;;;;;;;;;;;11.40;99.90;;;;;;5078312;28;20147;-67
2022/05/31 07:48:13;;;;;;;;;;;11.40;99.90;;;;;;5057083;28;20298;-68
2022/05/31 07:50:39;;;;;;;;;;;11.50;99.90;;;;;;5064021;28;19916;-67
2022/05/31 07:53:05;;;;;;;;;;;11.60;99.90;;;;;;5080342;28;20137;-68
2022/05/31 07:55:31;;;;;;;;;;;11.70;99.90;;;;;;5071386;28;19969;-66
2022/05/31 08:00:40;;;;;;;;;;;11.50;99.90;;;;;;5083856;28;19941;-66
2022/05/31 08:03:06;;;;;;;;;;;11.60;99.90;;;;;;5079618;28;19924;-66
2022/05/31 08:05:35;;;;;;;;;;;11.60;99.90;;;;;;5086455;28;19920;-66
2022/05/31 08:08:01;;;;;;;;;;;11.60;99.90;;;;;;5083279;28;20263;-66
2022/05/31 08:10:28;;;;;;;;;;;11.70;99.90;;;;;;5082261;28;19927;-66
2022/05/31 08:12:54;;;;;;;;;;;11.70;99.90;;;;;;5083177;28;19965;-65
2022/05/31 08:15:19;;;;;;;;;;;11.90;99.90;;;;;;5082206;28;19912;-65
2022/05/31 08:17:46;;;;;;;;;;;12.10;99.90;;;;;;5086799;28;20428;-66
2022/05/31 08:20:12;;;;;;;;;;;12.30;99.90;;;;;;5079622;28;20140;-65
2022/05/31 08:22:38;;;;;;;;;;;12.40;99.90;;;;;;5086422;28;20377;-66
2022/05/31 08:25:04;;;;;;;;;;;12.50;99.90;;;;;;5063970;28;19959;-67
2022/05/31 08:27:32;;;;;;;;;;;12.40;99.90;;;;;;5084185;28;19946;-64
2022/05/31 08:29:57;;;;;;;;;;;12.40;99.90;;;;;;5086038;28;19928;-66
2022/05/31 08:32:23;;;;;;;;;;;12.40;99.90;;;;;;5084951;28;19916;-68
2022/05/31 08:34:48;;;;;;;;;;;12.40;99.90;;;;;;5068713;28;19965;-67
2022/05/31 08:37:16;;;;;;;;;;;12.50;99.90;;;;;;5083121;28;19912;-68
2022/05/31 08:39:41;;;;;;;;;;;12.50;99.90;;;;;;5082675;28;19912;-65
2022/05/31 08:42:13;;;;;;;;;;;12.80;99.90;;;;;;5085905;28;21360;-68
2022/05/31 08:44:59;;;;;;;;;;;13.00;99.90;;;;;;5082546;28;19975;-67
2022/05/31 08:47:36;;;;;;;;;;;13.40;99.90;;;;;;5084310;28;20450;-68
2022/05/31 08:53:04;;;;;;;;;;;13.10;99.90;;;;;;5086625;28;19954;-66
2022/05/31 08:58:27;;;;;;;;;;;13.10;99.90;;;;;;5082106;28;19966;-66
2022/05/31 09:00:54;;;;;;;;;;;13.20;99.90;;;;;;5076792;28;19924;-67
2022/05/31 09:03:29;;;;;;;;;;;13.10;99.90;;;;;;5086954;28;19912;-66
2022/05/31 09:05:54;;;;;;;;;;;13.10;99.90;;;;;;5084277;28;20239;-66
2022/05/31 09:08:33;;;;;;;;;;;13.10;99.90;;;;;;5089305;28;19940;-65
2022/05/31 09:11:16;;;;;;;;;;;13.20;99.90;;;;;;5086113;28;20251;-71
2022/05/31 09:13:50;;;;;;;;;;;13.00;99.90;;;;;;5080903;28;19912;-68
2022/05/31 09:16:17;;;;;;;;;;;13.00;99.90;;;;;;5083174;28;20390;-68
2022/05/31 09:18:54;;;;;;;;;;;13.00;99.90;;;;;;5085358;28;19962;-68
2022/05/31 09:21:43;;;;;;;;;;;12.90;99.90;;;;;;5081246;28;20369;-66
2022/05/31 09:24:15;;;;;;;;;;;12.90;99.90;;;;;;5087101;28;19928;-66
2022/05/31 09:26:51;;;;;;;;;;;13.10;99.90;;;;;;5081863;28;20477;-67
2022/05/31 09:29:25;;;;;;;;;;;13.10;99.90;;;;;;5083758;28;19912;-67
2022/05/31 09:31:53;;;;;;;;;;;13.10;99.90;;;;;;5081614;28;19924;-66
2022/05/31 09:34:38;;;;;;;;;;;13.30;99.90;;;;;;5083220;28;19973;-69
2022/05/31 09:37:39;;;;;;;;;;;13.60;99.90;;;;;;5086424;28;19982;-69
2022/05/31 09:40:14;;;;;;;;;;;13.70;99.90;;;;;;4984936;28;19918;-69
2022/05/31 09:42:42;;;;;;;;;;;13.90;99.90;;;;;;5068687;28;19974;-67
2022/05/31 09:45:09;;;;;;;;;;;14.00;99.90;;;;;;5065747;28;19912;-69
2022/05/31 09:47:35;;;;;;;;;;;14.20;99.90;;;;;;5061708;28;19927;-68
2022/05/31 09:50:00;;;;;;;;;;;14.20;99.90;;;;;;5078935;28;20284;-68
2022/05/31 09:52:43;;;;;;;;;;;14.30;99.90;;;;;;5083774;28;19969;-66
2022/05/31 09:58:23;;;;;;;;;;;14.60;99.90;;;;;;5086888;28;20000;-67
2022/05/31 10:01:26;;;;;;;;;;;15.10;99.90;;;;;;5086798;28;19920;-68
2022/05/31 10:03:53;;;;;;;;;;;15.20;99.90;;;;;;4991048;28;19917;-69
2022/05/31 10:06:23;;;;;;;;;;;15.50;99.90;;;;;;4992702;28;19956;-69
2022/05/31 10:08:51;;;;;;;;;;;15.80;99.90;;;;;;5035546;28;19912;-69
2022/05/31 10:11:30;;;;;;;;;;;15.90;99.90;;;;;;5064545;28;20010;-69
2022/05/31 10:13:56;;;;;;;;;;;15.80;99.90;;;;;;5086554;28;20336;-69
2022/05/31 10:16:30;;;;;;;;;;;15.40;99.90;;;;;;5084028;28;19912;-71
2022/05/31 10:18:57;;;;;;;;;;;15.50;99.90;;;;;;5066579;28;20380;-67
2022/05/31 10:21:41;;;;;;;;;;;15.60;99.90;;;;;;5084576;28;19963;-67
2022/05/31 10:24:16;;;;;;;;;;;15.70;99.90;;;;;;5071212;28;20336;-66
2022/05/31 10:26:42;;;;;;;;;;;15.80;99.90;;;;;;5086689;28;20013;-68
2022/05/31 10:29:12;;;;;;;;;;;15.90;99.90;;;;;;5071348;28;19916;-67
2022/05/31 10:31:38;;;;;;;;;;;16.10;99.90;;;;;;5066183;28;19935;-70
2022/05/31 10:34:23;;;;;;;;;;;16.40;99.90;;;;;;5069012;28;19912;-69
2022/05/31 10:36:54;;;;;;;;;;;16.50;99.90;;;;;;5088073;28;19912;-70
2022/05/31 10:39:24;;;;;;;;;;;16.30;99.90;;;;;;5072406;28;19920;-71
2022/05/31 10:41:52;;;;;;;;;;;16.20;99.90;;;;;;5090057;28;20162;-69
2022/05/31 10:44:28;;;;;;;;;;;16.10;99.90;;;;;;5088495;28;19999;-70
2022/05/31 10:46:56;;;;;;;;;;;16.00;99.90;;;;;;5094411;28;19912;-69
2022/05/31 10:49:22;;;;;;;;;;;16.10;99.90;;;;;;5085779;28;20843;-70
2022/05/31 10:51:50;;;;;;;;;;;16.00;99.90;;;;;;5097677;28;20636;-69
2022/05/31 10:54:35;;;;;;;;;;;15.80;99.90;;;;;;5073308;28;19912;-70
2022/05/31 10:57:19;;;;;;;;;;;15.70;99.90;;;;;;5082910;28;19912;-70
2022/05/31 11:00:14;;;;;;;;;;;15.30;99.90;;;;;;5081337;28;20173;-71
2022/05/31 11:02:52;;;;;;;;;;;14.60;99.90;;;;;;5065356;28;19975;-70
2022/05/31 11:05:20;;;;;;;;;;;14.30;99.90;;;;;;5092594;28;19927;-71
2022/05/31 11:13:48;;;;;;;;;;;13.90;99.90;;;;;;5082966;28;20385;-70
2022/05/31 11:16:31;;;;;;;;;;;14.00;99.90;;;;;;5086421;28;20007;-69
2022/05/31 11:19:00;;;;;;;;;;;14.20;99.90;;;;;;5081652;28;19916;-68
2022/05/31 11:21:36;;;;;;;;;;;14.40;99.90;;;;;;5065491;28;19920;-70
2022/05/31 11:24:10;;;;;;;;;;;14.50;99.90;;;;;;5081944;28;20299;-69
2022/05/31 11:26:41;;;;;;;;;;;14.50;99.90;;;;;;5068491;28;20159;-69
2022/05/31 11:29:07;;;;;;;;;;;14.40;99.90;;;;;;5071129;28;20362;-70
2022/05/31 11:31:56;;;;;;;;;;;14.50;99.90;;;;;;5090418;28;19916;-71
2022/05/31 11:34:25;;;;;;;;;;;14.50;99.90;;;;;;5072129;28;20002;-70
2022/05/31 11:37:06;;;;;;;;;;;14.60;99.90;;;;;;5088934;28;19919;-72
2022/05/31 11:39:56;;;;;;;;;;;14.40;99.90;;;;;;5084359;28;19912;-70
2022/05/31 11:42:40;;;;;;;;;;;13.90;99.90;;;;;;5087044;28;20117;-72
2022/05/31 11:45:24;;;;;;;;;;;13.40;99.90;;;;;;5086488;28;19912;-70
2022/05/31 11:47:53;;;;;;;;;;;13.20;99.90;;;;;;5085861;28;19920;-71
2022/05/31 11:50:26;;;;;;;;;;;13.10;99.90;;;;;;5088379;28;19920;-70
2022/05/31 11:53:04;;;;;;;;;;;13.00;99.90;;;;;;5064976;28;19912;-70
2022/05/31 11:55:30;;;;;;;;;;;13.10;99.90;;;;;;5090699;28;19916;-70
2022/05/31 11:58:05;;;;;;;;;;;13.20;99.90;;;;;;5088093;28;19989;-69
2022/05/31 12:01:01;;;;;;;;;;;13.40;99.90;;;;;;5069896;28;19947;-71
2022/05/31 12:03:47;;;;;;;;;;;13.80;99.90;;;;;;5000092;28;19943;-68
2022/05/31 12:06:20;;;;;;;;;;;14.30;99.90;;;;;;5089649;28;20524;-70
2022/05/31 12:08:59;;;;;;;;;;;14.60;99.90;;;;;;5086786;28;19912;-70
2022/05/31 12:11:31;;;;;;;;;;;15.00;99.90;;;;;;5070155;28;20249;-71
2022/05/31 12:14:00;;;;;;;;;;;15.20;99.90;;;;;;5085515;28;19918;-69
2022/05/31 12:16:26;;;;;;;;;;;15.20;99.90;;;;;;5083511;28;19912;-70
2022/05/31 12:19:10;;;;;;;;;;;15.20;99.90;;;;;;5096537;28;19912;-71
2022/05/31 12:21:45;;;;;;;;;;;15.10;99.90;;;;;;5072129;28;19986;-67
2022/05/31 12:24:33;;;;;;;;;;;15.10;99.90;;;;;;5071104;28;19913;-72
2022/05/31 12:27:06;;;;;;;;;;;15.10;99.90;;;;;;5064219;28;20003;-70
2022/05/31 12:29:45;;;;;;;;;;;15.20;99.90;;;;;;5059371;28;20623;-69
2022/05/31 12:32:29;;;;;;;;;;;15.40;99.90;;;;;;5062932;28;19951;-68
2022/05/31 12:35:03;;;;;;;;;;;15.50;99.90;;;;;;5058385;28;19977;-69
2022/05/31 12:37:48;;;;;;;;;;;15.60;99.90;;;;;;5066877;28;20255;-70
2022/05/31 12:40:24;;;;;;;;;;;15.80;99.90;;;;;;5063717;28;20053;-71
2022/05/31 12:42:50;;;;;;;;;;;16.00;99.90;;;;;;5064792;28;20035;-70
2022/05/31 12:45:19;;;;;;;;;;;16.10;99.90;;;;;;5062222;28;19918;-67
2022/05/31 12:47:50;;;;;;;;;;;15.80;99.90;;;;;;5065253;28;20134;-72
2022/05/31 12:50:36;;;;;;;;;;;16.00;99.90;;;;;;5066414;28;20006;-70
2022/05/31 12:55:37;;;;;;;;;;;16.40;99.90;;;;;;5067888;28;19913;-71
2022/05/31 13:01:00;;;;;;;;;;;16.00;99.90;;;;;;5069303;28;19935;-67
2022/05/31 13:03:34;;;;;;;;;;;15.90;99.90;;;;;;5061232;28;19921;-69
2022/05/31 13:06:32;;;;;;;;;;;15.80;99.90;;;;;;5081563;28;19984;-69
2022/05/31 13:09:00;;;;;;;;;;;16.00;99.90;;;;;;5053508;28;20058;-70
2022/05/31 13:20:00;;;;;;;;;;;16.60;99.90;;;;;;5074852;28;19920;-68
2022/05/31 13:22:26;;;;;;;;;;;16.90;99.90;;;;;;5090062;28;20247;-69
2022/05/31 13:24:58;;;;;;;;;;;16.80;99.90;;;;;;5089443;28;19940;-68
2022/05/31 13:27:27;;;;;;;;;;;16.70;99.90;;;;;;5087001;28;19959;-70
2022/05/31 13:30:11;;;;;;;;;;;16.50;99.90;;;;;;5090058;28;20254;-69
2022/05/31 13:32:36;;;;;;;;;;;16.50;99.90;;;;;;5087072;28;19923;-68
2022/05/31 13:35:10;;;;;;;;;;;16.50;99.90;;;;;;5087071;28;19912;-66
2022/05/31 13:37:56;;;;;;;;;;;16.60;99.90;;;;;;5087442;28;20003;-70
2022/05/31 13:40:22;;;;;;;;;;;16.80;99.80;;;;;;5086619;28;19912;-71
2022/05/31 13:42:49;;;;;;;;;;;16.70;99.90;;;;;;5065411;28;20024;-71
2022/05/31 13:45:18;;;;;;;;;;;16.60;99.90;;;;;;5089632;28;19912;-70
2022/05/31 13:47:55;;;;;;;;;;;16.40;99.70;;;;;;5080292;28;19913;-67
2022/05/31 13:50:23;;;;;;;;;;;16.30;99.90;;;;;;5088508;28;20322;-70
2022/05/31 13:52:50;;;;;;;;;;;16.30;99.90;;;;;;5068191;28;19919;-70
2022/05/31 13:55:20;;;;;;;;;;;16.20;99.60;;;;;;5089943;28;19984;-69
2022/05/31 13:57:52;;;;;;;;;;;16.40;99.90;;;;;;5085977;28;19916;-71
2022/05/31 14:00:30;;;;;;;;;;;16.50;99.40;;;;;;5088986;28;19912;-70
2022/05/31 14:03:05;;;;;;;;;;;16.50;98.90;;;;;;5073440;28;19943;-70
2022/05/31 14:05:35;;;;;;;;;;;16.50;99.90;;;;;;5090641;28;20032;-70
2022/05/31 14:08:01;;;;;;;;;;;16.50;99.90;;;;;;5090727;28;20033;-70
2022/05/31 14:10:29;;;;;;;;;;;16.60;99.90;;;;;;5090046;28;19916;-69
2022/05/31 14:13:02;;;;;;;;;;;16.80;99.30;;;;;;5088305;28;19983;-67
2022/05/31 14:15:29;;;;;;;;;;;17.20;97.60;;;;;;5086102;28;19912;-67
2022/05/31 14:18:05;;;;;;;;;;;17.10;97.40;;;;;;5088966;28;20071;-67
2022/05/31 14:20:33;;;;;;;;;;;17.10;97.20;;;;;;5086961;28;19920;-68
2022/05/31 14:23:04;;;;;;;;;;;17.20;96.60;;;;;;5085609;28;20072;-66
2022/05/31 14:25:31;;;;;;;;;;;17.30;97.20;;;;;;5088442;28;19912;-67
2022/05/31 14:27:57;;;;;;;;;;;17.10;97.40;;;;;;5089958;28;19940;-68
2022/05/31 14:30:41;;;;;;;;;;;17.20;97.60;;;;;;5072722;28;19912;-68
2022/05/31 14:33:08;;;;;;;;;;;17.30;97.00;;;;;;5082723;28;19947;-67
2022/05/31 14:35:39;;;;;;;;;;;17.30;96.80;;;;;;5069892;28;19919;-67
2022/05/31 14:38:06;;;;;;;;;;;17.00;95.30;;;;;;5086360;28;19931;-67
2022/05/31 14:40:39;;;;;;;;;;;16.80;95.40;;;;;;5070604;28;19916;-67
2022/05/31 14:43:08;;;;;;;;;;;16.80;95.50;;;;;;5092346;28;19974;-68
2022/05/31 14:45:52;;;;;;;;;;;16.80;96.30;;;;;;5087932;28;20242;-68
2022/05/31 14:48:36;;;;;;;;;;;16.80;97.10;;;;;;5090661;28;20333;-67
2022/05/31 14:51:09;;;;;;;;;;;16.70;96.70;;;;;;5085456;28;19916;-71
2022/05/31 14:53:36;;;;;;;;;;;17.20;95.70;;;;;;5065904;28;19939;-69
2022/05/31 14:56:02;;;;;;;;;;;17.40;93.90;;;;;;5083467;28;19912;-70
2022/05/31 14:58:41;;;;;;;;;;;17.30;93.90;;;;;;5082600;28;19923;-70
2022/05/31 15:01:14;;;;;;;;;;;17.50;93.80;;;;;;5082580;28;19928;-71
2022/05/31 15:03:43;;;;;;;;;;;18.90;92.40;;;;;;5081607;28;19924;-68
2022/05/31 15:06:11;;;;;;;;;;;20.30;87.00;;;;;;5085472;28;19972;-68
2022/05/31 15:08:38;;;;;;;;;;;21.10;81.70;;;;;;5085464;28;19912;-69
2022/05/31 15:19:57;;;;;;;;;;;18.30;90.70;;;;;;5022883;28;19924;-71